createdAt,value
2023-12-08T00:00:28.026Z,96.51
2023-12-08T00:02:55.959Z,96.40
2023-12-08T00:05:23.884Z,95.87
2023-12-08T00:07:52.003Z,96.05
2023-12-08T00:10:19.882Z,95.47
2023-12-08T00:12:49.283Z,95.44
2023-12-08T00:15:17.229Z,95.40
2023-12-08T00:17:45.213Z,94.92
2023-12-08T00:20:13.567Z,94.86
2023-12-08T00:22:42.462Z,95.18
2023-12-08T00:25:11.928Z,95.14
2023-12-08T00:27:39.830Z,94.56
2023-12-08T00:30:09.974Z,94.55
2023-12-08T00:32:37.979Z,94.41
2023-12-08T00:35:06.581Z,94.14
2023-12-08T00:37:34.773Z,93.70
2023-12-08T00:40:03.462Z,93.80
2023-12-08T00:42:31.354Z,93.51
2023-12-08T00:44:59.211Z,93.27
2023-12-08T00:47:28.816Z,93.21
2023-12-08T00:49:56.871Z,93.52
2023-12-08T00:52:24.828Z,95.05
2023-12-08T00:54:52.585Z,94.58
2023-12-08T00:57:20.475Z,95.63
2023-12-08T00:59:48.388Z,94.68
2023-12-08T01:02:16.315Z,95.70
2023-12-08T01:04:45.561Z,95.98
2023-12-08T01:07:13.479Z,95.38
2023-12-08T01:09:41.333Z,95.71
2023-12-08T01:12:09.252Z,95.64
2023-12-08T01:14:37.194Z,95.25
2023-12-08T01:17:05.606Z,94.61
2023-12-08T01:19:33.702Z,95.86
2023-12-08T01:22:02.931Z,95.86
2023-12-08T01:24:30.768Z,96.48
2023-12-08T01:26:58.680Z,96.02
2023-12-08T01:29:26.595Z,96.89
2023-12-08T01:31:54.447Z,97.54
2023-12-08T01:34:22.428Z,96.40
2023-12-08T01:36:50.547Z,95.73
2023-12-08T01:39:19.874Z,96.14
2023-12-08T01:41:51.840Z,96.75
2023-12-08T01:44:19.976Z,96.62
2023-12-08T01:46:48.700Z,97.47
2023-12-08T01:49:18.110Z,97.28
2023-12-08T01:51:47.321Z,97.46
2023-12-08T01:54:16.890Z,97.37
2023-12-08T01:56:46.259Z,96.94
2023-12-08T01:59:15.502Z,96.97
2023-12-08T02:01:43.472Z,97.44
2023-12-08T02:04:11.558Z,98.01
2023-12-08T02:06:39.604Z,98.28
2023-12-08T02:09:08.968Z,99.88
2023-12-08T02:11:37.456Z,99.44
2023-12-08T02:14:07.886Z,99.49
2023-12-08T02:16:42.563Z,100.00
2023-12-08T02:19:14.568Z,100.00
2023-12-08T02:21:43.317Z,100.00
2023-12-08T02:24:12.609Z,100.00
2023-12-08T02:26:40.742Z,100.00
2023-12-08T02:29:10.717Z,100.00
2023-12-08T02:31:47.867Z,100.00
2023-12-08T02:34:18.015Z,100.00
2023-12-08T02:36:47.457Z,100.00
2023-12-08T02:39:18.790Z,100.00
2023-12-08T02:41:46.824Z,100.00
2023-12-08T02:44:14.686Z,100.00
2023-12-08T02:46:41.607Z,100.00
2023-12-08T02:49:09.622Z,100.00
2023-12-08T02:51:37.585Z,100.00
2023-12-08T02:54:05.703Z,100.00
2023-12-08T02:56:47.386Z,100.00
2023-12-08T02:59:15.471Z,100.00
2023-12-08T03:01:43.368Z,100.00
2023-12-08T03:04:11.172Z,100.00
2023-12-08T03:06:39.020Z,100.00
2023-12-08T03:09:06.983Z,100.00
2023-12-08T03:11:34.843Z,100.00
2023-12-08T03:14:04.051Z,100.00
2023-12-08T03:16:31.927Z,100.00
2023-12-08T03:18:59.999Z,100.00
2023-12-08T03:21:28.190Z,100.00
2023-12-08T03:23:56.111Z,100.00
2023-12-08T03:26:24.187Z,100.00
2023-12-08T03:28:52.013Z,100.00
2023-12-08T03:31:26.447Z,100.00
2023-12-08T03:33:54.666Z,100.00
2023-12-08T03:36:23.166Z,100.00
2023-12-08T03:38:51.251Z,100.00
2023-12-08T03:41:19.121Z,100.00
2023-12-08T03:43:47.070Z,100.00
2023-12-08T03:46:15.006Z,100.00
2023-12-08T03:48:44.512Z,100.00
2023-12-08T03:51:12.782Z,100.00
2023-12-08T03:53:40.862Z,100.00
2023-12-08T03:56:09.697Z,100.00
2023-12-08T03:58:37.684Z,100.00
2023-12-08T04:01:06.113Z,100.00
2023-12-08T04:03:34.634Z,100.00
2023-12-08T04:06:04.264Z,100.00
2023-12-08T04:08:32.275Z,100.00
2023-12-08T04:11:00.199Z,100.00
2023-12-08T04:13:28.104Z,100.00
2023-12-08T04:15:55.912Z,100.00
2023-12-08T04:18:23.891Z,100.00
2023-12-08T04:20:51.910Z,100.00
2023-12-08T04:23:21.103Z,100.00
2023-12-08T04:25:49.060Z,100.00
2023-12-08T04:28:16.893Z,100.00
2023-12-08T04:30:44.785Z,100.00
2023-12-08T04:33:13.561Z,100.00
2023-12-08T04:35:41.532Z,100.00
2023-12-08T04:38:09.391Z,100.00
2023-12-08T04:40:38.677Z,100.00
2023-12-08T04:43:06.551Z,100.00
2023-12-08T04:45:34.457Z,100.00
2023-12-08T04:48:02.499Z,100.00
2023-12-08T04:50:30.517Z,100.00
2023-12-08T04:52:58.297Z,100.00
2023-12-08T04:55:26.679Z,100.00
2023-12-08T04:57:55.894Z,100.00
2023-12-08T05:00:23.822Z,100.00
2023-12-08T05:02:51.665Z,100.00
2023-12-08T05:05:19.823Z,100.00
2023-12-08T05:07:47.808Z,100.00
2023-12-08T05:10:15.670Z,100.00
2023-12-08T05:12:43.585Z,100.00
2023-12-08T05:15:13.142Z,100.00
2023-12-08T05:17:41.471Z,100.00
2023-12-08T05:20:12.801Z,100.00
2023-12-08T05:22:40.697Z,100.00
2023-12-08T05:25:09.620Z,100.00
2023-12-08T05:27:37.608Z,100.00
2023-12-08T05:30:06.545Z,100.00
2023-12-08T05:32:35.821Z,100.00
2023-12-08T05:35:03.756Z,100.00
2023-12-08T05:37:31.662Z,100.00
2023-12-08T05:39:59.477Z,100.00
2023-12-08T05:42:27.390Z,100.00
2023-12-08T05:44:55.282Z,100.00
2023-12-08T05:47:23.189Z,100.00
2023-12-08T05:49:52.598Z,100.00
2023-12-08T05:52:20.507Z,100.00
2023-12-08T05:54:48.337Z,100.00
2023-12-08T05:57:16.232Z,100.00
2023-12-08T05:59:44.145Z,100.00
2023-12-08T06:02:12.067Z,100.00
2023-12-08T06:04:39.884Z,100.00
2023-12-08T06:07:09.346Z,100.00
2023-12-08T06:09:37.393Z,100.00
2023-12-08T06:12:05.934Z,100.00
2023-12-08T06:14:34.321Z,100.00
2023-12-08T06:17:02.200Z,100.00
2023-12-08T06:19:30.937Z,100.00
2023-12-08T06:21:58.940Z,100.00
2023-12-08T06:24:28.203Z,100.00
2023-12-08T06:26:56.187Z,100.00
2023-12-08T06:29:24.050Z,100.00
2023-12-08T06:31:51.950Z,100.00
2023-12-08T06:34:19.952Z,100.00
2023-12-08T06:36:49.103Z,100.00
2023-12-08T06:39:17.772Z,100.00
2023-12-08T06:41:47.170Z,100.00
2023-12-08T06:44:15.189Z,100.00
2023-12-08T06:46:43.895Z,100.00
2023-12-08T06:49:12.108Z,100.00
2023-12-08T06:51:40.002Z,100.00
2023-12-08T06:54:07.941Z,100.00
2023-12-08T06:56:36.605Z,100.00
2023-12-08T06:59:05.978Z,100.00
2023-12-08T07:01:33.793Z,100.00
2023-12-08T07:04:01.761Z,100.00
2023-12-08T07:06:29.636Z,100.00
2023-12-08T07:08:57.586Z,100.00
2023-12-08T07:11:25.621Z,100.00
2023-12-08T07:13:53.510Z,100.00
2023-12-08T07:16:22.765Z,100.00
2023-12-08T07:18:50.852Z,100.00
2023-12-08T07:21:18.909Z,100.00
2023-12-08T07:23:46.851Z,100.00
2023-12-08T07:26:15.269Z,100.00
2023-12-08T07:28:43.775Z,100.00
2023-12-08T07:31:13.258Z,100.00
2023-12-08T07:33:42.582Z,100.00
2023-12-08T07:36:10.946Z,100.00
2023-12-08T07:38:38.887Z,100.00
2023-12-08T07:41:06.966Z,100.00
2023-12-08T07:43:36.207Z,100.00
2023-12-08T07:46:04.907Z,100.00
2023-12-08T07:48:32.845Z,100.00
2023-12-08T07:51:02.079Z,100.00
2023-12-08T07:53:29.924Z,100.00
2023-12-08T07:55:57.776Z,100.00
2023-12-08T07:58:25.556Z,100.00
2023-12-08T08:00:53.368Z,100.00
2023-12-08T08:03:21.340Z,100.00
2023-12-08T08:05:49.470Z,100.00
2023-12-08T08:08:19.199Z,100.00
2023-12-08T08:10:47.133Z,100.00
2023-12-08T08:13:15.060Z,100.00
2023-12-08T08:15:42.842Z,100.00
2023-12-08T08:18:10.787Z,100.00
2023-12-08T08:20:38.684Z,100.00
2023-12-08T08:23:06.542Z,100.00
2023-12-08T08:25:35.803Z,100.00
2023-12-08T08:28:04.612Z,100.00
2023-12-08T08:30:34.441Z,100.00
2023-12-08T08:33:02.635Z,100.00
2023-12-08T08:35:30.647Z,100.00
2023-12-08T08:37:58.525Z,100.00
2023-12-08T08:40:26.362Z,100.00
2023-12-08T08:42:55.515Z,100.00
2023-12-08T08:45:23.396Z,100.00
2023-12-08T08:47:51.363Z,100.00
2023-12-08T08:50:19.237Z,100.00
2023-12-08T08:52:47.229Z,100.00
2023-12-08T08:55:15.095Z,100.00
2023-12-08T08:57:42.861Z,100.00
2023-12-08T09:00:13.798Z,100.00
2023-12-08T09:02:42.095Z,100.00
2023-12-08T09:05:10.449Z,100.00
2023-12-08T09:07:39.186Z,100.00
2023-12-08T09:10:08.645Z,100.00
2023-12-08T09:12:36.585Z,100.00
2023-12-08T09:15:06.717Z,100.00
2023-12-08T09:17:36.098Z,100.00
2023-12-08T09:20:05.659Z,100.00
2023-12-08T09:22:33.672Z,100.00
2023-12-08T09:25:01.466Z,100.00
2023-12-08T09:27:29.371Z,100.00
2023-12-08T09:29:57.470Z,100.00
2023-12-08T09:32:26.054Z,100.00
2023-12-08T09:34:55.508Z,100.00
2023-12-08T09:37:27.903Z,100.00
2023-12-08T09:40:06.668Z,100.00
2023-12-08T09:42:38.331Z,100.00
2023-12-08T09:45:08.367Z,100.00
2023-12-08T09:47:37.070Z,100.00
2023-12-08T09:50:08.476Z,100.00
2023-12-08T09:52:36.718Z,100.00
2023-12-08T09:55:05.223Z,100.00
2023-12-08T09:57:35.191Z,100.00
2023-12-08T10:00:06.981Z,100.00
2023-12-08T10:02:34.984Z,100.00
2023-12-08T10:05:02.891Z,100.00
2023-12-08T10:07:33.432Z,100.00
2023-12-08T10:10:01.314Z,100.00
2023-12-08T10:12:29.519Z,100.00
2023-12-08T10:14:59.078Z,100.00
2023-12-08T10:17:27.659Z,100.00
2023-12-08T10:20:09.801Z,100.00
2023-12-08T10:22:48.482Z,100.00
2023-12-08T10:25:17.203Z,100.00
2023-12-08T10:27:46.674Z,100.00
2023-12-08T10:30:16.331Z,100.00
2023-12-08T10:32:45.088Z,100.00
2023-12-08T10:35:13.995Z,100.00
2023-12-08T10:37:42.606Z,100.00
2023-12-08T10:40:14.020Z,100.00
2023-12-08T10:42:42.061Z,100.00
2023-12-08T10:45:12.154Z,100.00
2023-12-08T10:47:42.427Z,100.00
2023-12-08T10:50:11.392Z,100.00
2023-12-08T10:52:40.226Z,100.00
2023-12-08T10:55:09.487Z,100.00
2023-12-08T10:57:39.418Z,100.00
2023-12-08T11:00:14.181Z,100.00
2023-12-08T11:02:44.868Z,100.00
2023-12-08T11:05:17.223Z,100.00
2023-12-08T11:07:47.642Z,100.00
2023-12-08T11:10:17.291Z,100.00
2023-12-08T11:12:55.523Z,100.00
2023-12-08T11:15:24.426Z,100.00
2023-12-08T11:18:00.290Z,100.00
2023-12-08T11:20:28.054Z,100.00
2023-12-08T11:22:56.189Z,100.00
2023-12-08T11:25:29.829Z,100.00
2023-12-08T11:28:07.040Z,100.00
2023-12-08T11:30:50.526Z,100.00
2023-12-08T11:33:29.134Z,100.00
2023-12-08T11:36:08.178Z,100.00
2023-12-08T11:38:36.126Z,100.00
2023-12-08T11:41:04.199Z,100.00
2023-12-08T11:43:33.567Z,100.00
2023-12-08T11:46:04.442Z,100.00
2023-12-08T11:48:32.393Z,100.00
2023-12-08T11:51:02.499Z,100.00
2023-12-08T11:53:30.561Z,100.00
2023-12-08T11:55:58.444Z,100.00
2023-12-08T11:58:33.808Z,100.00
2023-12-08T12:01:04.283Z,100.00
2023-12-08T12:03:32.688Z,100.00
2023-12-08T12:06:00.905Z,100.00
2023-12-08T12:08:29.172Z,100.00
2023-12-08T12:11:03.956Z,100.00
2023-12-08T12:13:34.932Z,100.00
2023-12-08T12:16:04.433Z,100.00
2023-12-08T12:18:33.918Z,100.00
2023-12-08T12:21:01.861Z,100.00
2023-12-08T12:23:29.823Z,100.00
2023-12-08T12:25:57.952Z,100.00
2023-12-08T12:28:25.778Z,100.00
2023-12-08T12:30:53.666Z,100.00
2023-12-08T12:33:22.988Z,100.00
2023-12-08T12:35:54.394Z,100.00
2023-12-08T12:38:26.483Z,100.00
2023-12-08T12:40:55.033Z,100.00
2023-12-08T12:43:21.819Z,100.00
2023-12-08T12:45:50.561Z,100.00
2023-12-08T12:48:18.550Z,100.00
2023-12-08T12:50:49.034Z,100.00
2023-12-08T12:53:16.925Z,100.00
2023-12-08T12:55:44.843Z,100.00
2023-12-08T12:58:20.323Z,100.00
2023-12-08T13:00:48.695Z,100.00
2023-12-08T13:03:18.807Z,100.00
2023-12-08T13:05:49.394Z,100.00
2023-12-08T13:08:18.322Z,100.00
2023-12-08T13:10:47.124Z,100.00
2023-12-08T13:13:15.108Z,100.00
2023-12-08T13:15:43.898Z,100.00
2023-12-08T13:18:12.066Z,100.00
2023-12-08T13:20:41.354Z,100.00
2023-12-08T13:23:10.804Z,100.00
2023-12-08T13:25:39.068Z,100.00
2023-12-08T13:28:07.096Z,100.00
2023-12-08T13:30:35.042Z,100.00
2023-12-08T13:33:05.919Z,100.00
2023-12-08T13:35:35.304Z,100.00
2023-12-08T13:38:03.281Z,100.00
2023-12-08T13:40:32.461Z,100.00
2023-12-08T13:43:00.292Z,100.00
2023-12-08T13:45:28.291Z,100.00
2023-12-08T13:47:56.348Z,100.00
2023-12-08T13:50:24.337Z,100.00
2023-12-08T13:52:52.232Z,100.00
2023-12-08T13:55:20.167Z,100.00
2023-12-08T13:57:49.774Z,100.00
2023-12-08T14:00:19.118Z,100.00
2023-12-08T14:02:47.415Z,100.00
2023-12-08T14:05:15.532Z,100.00
2023-12-08T14:07:43.508Z,100.00
2023-12-08T14:10:12.341Z,100.00
2023-12-08T14:12:42.166Z,100.00
2023-12-08T14:15:11.776Z,100.00
2023-12-08T14:17:39.604Z,100.00
2023-12-08T14:20:08.840Z,100.00
2023-12-08T14:22:36.972Z,100.00
2023-12-08T14:25:05.064Z,100.00
2023-12-08T14:27:36.550Z,100.00
2023-12-08T14:30:06.538Z,100.00
2023-12-08T14:32:35.855Z,100.00
2023-12-08T14:35:11.049Z,100.00
2023-12-08T14:37:46.829Z,100.00
2023-12-08T14:40:14.974Z,100.00
2023-12-08T14:42:42.770Z,100.00
2023-12-08T14:45:11.886Z,100.00
2023-12-08T14:47:41.532Z,100.00
2023-12-08T14:50:11.369Z,100.00
2023-12-08T14:52:39.483Z,100.00
2023-12-08T14:55:15.796Z,100.00
2023-12-08T14:57:45.045Z,100.00
2023-12-08T15:00:14.816Z,100.00
2023-12-08T15:02:44.897Z,100.00
2023-12-08T15:05:13.200Z,100.00
2023-12-08T15:07:41.582Z,100.00
2023-12-08T15:10:10.304Z,100.00
2023-12-08T15:12:38.462Z,100.00
2023-12-08T15:15:06.991Z,100.00
2023-12-08T15:17:35.530Z,100.00
2023-12-08T15:20:05.752Z,100.00
2023-12-08T15:22:35.067Z,100.00
2023-12-08T15:25:03.990Z,100.00
2023-12-08T15:27:33.754Z,100.00
2023-12-08T15:30:01.773Z,100.00
2023-12-08T15:32:29.729Z,100.00
2023-12-08T15:34:58.664Z,100.00
2023-12-08T15:37:28.173Z,100.00
2023-12-08T15:39:56.913Z,100.00
2023-12-08T15:42:24.827Z,100.00
2023-12-08T15:44:52.997Z,100.00
2023-12-08T15:47:20.862Z,100.00
2023-12-08T15:49:49.104Z,100.00
2023-12-08T15:52:18.895Z,100.00
2023-12-08T15:54:48.227Z,100.00
2023-12-08T15:57:16.211Z,100.00
2023-12-08T15:59:44.330Z,100.00
2023-12-08T16:02:12.305Z,100.00
2023-12-08T16:04:42.609Z,100.00
2023-12-08T16:07:10.425Z,100.00
2023-12-08T16:09:38.332Z,100.00
2023-12-08T16:12:07.949Z,100.00
2023-12-08T16:14:36.424Z,100.00
2023-12-08T16:17:04.510Z,100.00
2023-12-08T16:19:32.371Z,100.00
2023-12-08T16:22:00.262Z,100.00
2023-12-08T16:24:28.204Z,100.00
2023-12-08T16:26:56.047Z,100.00
2023-12-08T16:29:25.293Z,100.00
2023-12-08T16:31:53.159Z,100.00
2023-12-08T16:34:21.161Z,100.00
2023-12-08T16:36:50.289Z,100.00
2023-12-08T16:39:19.480Z,100.00
2023-12-08T16:41:49.299Z,100.00
2023-12-08T16:44:17.220Z,100.00
2023-12-08T16:46:46.863Z,100.00
2023-12-08T16:49:14.877Z,100.00
2023-12-08T16:51:42.844Z,100.00
2023-12-08T16:54:10.813Z,100.00
2023-12-08T16:56:38.664Z,100.00
2023-12-08T16:59:06.614Z,100.00
2023-12-08T17:01:34.738Z,100.00
2023-12-08T17:04:04.148Z,100.00
2023-12-08T17:06:32.241Z,100.00
2023-12-08T17:09:00.250Z,100.00
2023-12-08T17:11:28.291Z,100.00
2023-12-08T17:13:56.290Z,100.00
2023-12-08T17:16:24.277Z,100.00
2023-12-08T17:18:52.180Z,100.00
2023-12-08T17:21:21.506Z,100.00
2023-12-08T17:23:50.041Z,100.00
2023-12-08T17:26:25.297Z,100.00
2023-12-08T17:28:57.466Z,100.00
2023-12-08T17:31:25.428Z,100.00
2023-12-08T17:33:55.055Z,100.00
2023-12-08T17:36:28.749Z,100.00
2023-12-08T17:38:56.723Z,100.00
2023-12-08T17:41:24.644Z,100.00
2023-12-08T17:43:52.457Z,100.00
2023-12-08T17:46:20.410Z,100.00
2023-12-08T17:48:48.604Z,100.00
2023-12-08T17:51:16.814Z,100.00
2023-12-08T17:53:47.221Z,100.00
2023-12-08T17:56:15.706Z,100.00
2023-12-08T17:58:43.962Z,100.00
2023-12-08T18:01:11.909Z,100.00
2023-12-08T18:03:39.893Z,100.00
2023-12-08T18:06:08.631Z,100.00
2023-12-08T18:08:36.699Z,100.00
2023-12-08T18:11:06.201Z,100.00
2023-12-08T18:13:34.009Z,100.00
2023-12-08T18:16:01.835Z,100.00
2023-12-08T18:18:29.779Z,100.00
2023-12-08T18:20:57.693Z,100.00
2023-12-08T18:23:25.523Z,100.00
2023-12-08T18:25:54.531Z,100.00
2023-12-08T18:28:58.142Z,100.00
2023-12-08T18:31:22.106Z,100.00
2023-12-08T18:33:50.813Z,100.00
2023-12-08T18:36:23.026Z,100.00
2023-12-08T18:38:51.651Z,100.00
2023-12-08T18:41:20.155Z,100.00
2023-12-08T18:43:49.775Z,100.00
2023-12-08T18:46:17.989Z,100.00
2023-12-08T18:48:47.420Z,100.00
2023-12-08T18:51:16.152Z,100.00
2023-12-08T18:53:44.168Z,100.00
2023-12-08T18:56:13.387Z,100.00
2023-12-08T18:58:41.221Z,100.00
2023-12-08T19:01:12.147Z,100.00
2023-12-08T19:03:40.036Z,100.00
2023-12-08T19:06:11.531Z,100.00
2023-12-08T19:08:40.101Z,100.00
2023-12-08T19:11:08.292Z,100.00
2023-12-08T19:13:36.630Z,100.00
2023-12-08T19:16:06.961Z,100.00
2023-12-08T19:18:36.263Z,100.00
2023-12-08T19:21:04.292Z,100.00
2023-12-08T19:23:34.524Z,100.00
2023-12-08T19:26:05.475Z,100.00
2023-12-08T19:28:33.694Z,100.00
2023-12-08T19:31:01.517Z,100.00
2023-12-08T19:33:29.592Z,100.00
2023-12-08T19:35:58.995Z,100.00
2023-12-08T19:38:30.485Z,100.00
2023-12-08T19:40:58.378Z,100.00
2023-12-08T19:43:28.394Z,100.00
2023-12-08T19:45:56.228Z,100.00
2023-12-08T19:48:24.218Z,100.00
2023-12-08T19:50:52.648Z,100.00
2023-12-08T19:53:21.926Z,100.00
2023-12-08T19:55:49.778Z,100.00
2023-12-08T19:58:17.930Z,100.00
2023-12-08T20:00:45.804Z,100.00
2023-12-08T20:03:13.864Z,100.00
2023-12-08T20:05:41.990Z,100.00
2023-12-08T20:08:09.860Z,100.00
2023-12-08T20:10:39.536Z,100.00
2023-12-08T20:13:07.434Z,100.00
2023-12-08T20:15:35.344Z,100.00
2023-12-08T20:18:03.966Z,100.00
2023-12-08T20:20:31.928Z,100.00
2023-12-08T20:22:59.744Z,100.00
2023-12-08T20:25:27.574Z,100.00
2023-12-08T20:27:56.719Z,100.00
2023-12-08T20:30:24.571Z,100.00
2023-12-08T20:32:52.498Z,100.00
2023-12-08T20:35:20.419Z,100.00
2023-12-08T20:37:48.263Z,100.00
2023-12-08T20:40:16.604Z,100.00
2023-12-08T20:42:44.481Z,100.00
2023-12-08T20:45:14.078Z,100.00
2023-12-08T20:47:41.992Z,100.00
2023-12-08T20:50:10.699Z,100.00
2023-12-08T20:52:38.561Z,100.00
2023-12-08T20:55:06.867Z,100.00
2023-12-08T20:57:34.863Z,100.00
2023-12-08T21:00:03.404Z,100.00
2023-12-08T21:02:32.789Z,100.00
2023-12-08T21:05:00.707Z,100.00
2023-12-08T21:07:28.841Z,100.00
2023-12-08T21:09:56.894Z,100.00
2023-12-08T21:12:24.734Z,100.00
2023-12-08T21:14:52.722Z,100.00
2023-12-08T21:17:19.927Z,100.00
2023-12-08T21:19:49.122Z,100.00
2023-12-08T21:22:17.000Z,100.00
2023-12-08T21:24:44.859Z,100.00
2023-12-08T21:27:15.279Z,100.00
2023-12-08T21:29:43.702Z,100.00
2023-12-08T21:32:11.717Z,100.00
2023-12-08T21:34:39.634Z,100.00
2023-12-08T21:37:08.795Z,100.00
2023-12-08T21:39:36.889Z,100.00
2023-12-08T21:42:05.057Z,100.00
2023-12-08T21:44:32.885Z,100.00
2023-12-08T21:47:00.686Z,100.00
2023-12-08T21:49:30.008Z,100.00
2023-12-08T21:51:58.169Z,100.00
2023-12-08T21:54:27.666Z,100.00
2023-12-08T21:56:56.534Z,100.00
2023-12-08T21:59:24.454Z,100.00
2023-12-08T22:01:52.409Z,100.00
2023-12-08T22:04:20.796Z,100.00
2023-12-08T22:06:49.208Z,100.00
2023-12-08T22:09:17.066Z,100.00
2023-12-08T22:11:46.334Z,100.00
2023-12-08T22:14:14.254Z,100.00
2023-12-08T22:16:42.078Z,100.00
2023-12-08T22:19:11.469Z,100.00
2023-12-08T22:21:39.348Z,100.00
2023-12-08T22:24:07.737Z,100.00
2023-12-08T22:26:35.621Z,100.00
2023-12-08T22:29:04.797Z,100.00
2023-12-08T22:31:32.710Z,100.00
2023-12-08T22:34:00.716Z,100.00
2023-12-08T22:36:29.047Z,100.00
2023-12-08T22:38:57.120Z,100.00
2023-12-08T22:41:25.306Z,100.00
2023-12-08T22:43:54.115Z,100.00
2023-12-08T22:46:23.336Z,100.00
2023-12-08T22:48:51.935Z,100.00
2023-12-08T22:51:25.752Z,100.00
2023-12-08T22:54:01.178Z,100.00
2023-12-08T22:56:29.040Z,100.00
2023-12-08T22:58:56.949Z,100.00
2023-12-08T23:01:26.176Z,100.00
2023-12-08T23:03:54.054Z,100.00
2023-12-08T23:06:22.053Z,100.00
2023-12-08T23:08:50.037Z,100.00
2023-12-08T23:11:18.184Z,100.00
2023-12-08T23:13:46.005Z,100.00
2023-12-08T23:16:14.274Z,100.00
2023-12-08T23:18:43.960Z,100.00
2023-12-08T23:21:11.962Z,100.00
2023-12-08T23:23:39.787Z,100.00
2023-12-08T23:26:08.090Z,100.00
2023-12-08T23:28:35.970Z,100.00
2023-12-08T23:31:04.400Z,100.00
2023-12-08T23:33:32.647Z,100.00
2023-12-08T23:36:02.085Z,100.00
2023-12-08T23:38:30.002Z,100.00
2023-12-08T23:40:57.882Z,100.00
2023-12-08T23:43:25.795Z,100.00
2023-12-08T23:45:53.651Z,100.00
2023-12-08T23:48:22.056Z,100.00
2023-12-08T23:50:50.320Z,100.00
2023-12-08T23:53:20.506Z,100.00
2023-12-08T23:55:48.459Z,100.00
2023-12-08T23:58:16.315Z,100.00
